Time;durP1;ratioP1;P1;durP2;ratioP2;P2;SDS_P1;SDS_P2;PMS_P1;PMS_P2;Temp;Humidity;BMP_temperature;BMP_pressure;BME280_temperature;BME280_humidity;BME280_pressure;Samples;Min_cycle;Max_cycle;Signal;HPM_P1;HPM_P2
2021/12/25 00:02:01;;;;;;;24.58;15.05;;;;;;;;;;5039246;28;20034;-72
2021/12/25 00:04:27;;;;;;;20.13;12.15;;;;;;;;;;5039638;28;20092;-77
2021/12/25 00:06:53;;;;;;;21.30;12.80;;;;;;;;;;5025796;28;20036;-74
2021/12/25 00:09:19;;;;;;;24.35;14.27;;;;;;;;;;5024220;28;20400;-71
2021/12/25 00:11:46;;;;;;;22.40;13.77;;;;;;;;;;5023901;28;20018;-75
2021/12/25 00:14:13;;;;;;;25.45;12.38;;;;;;;;;;5025496;28;20021;-72
2021/12/25 00:16:39;;;;;;;26.00;12.73;;;;;;;;;;5026542;28;20087;-74
2021/12/25 00:19:08;;;;;;;20.38;11.25;;;;;;;;;;5024276;28;20098;-74
2021/12/25 00:22:12;;;;;;;20.02;11.95;;;;;;;;;;5024031;28;20022;-75
2021/12/25 00:24:43;;;;;;;22.10;11.18;;;;;;;;;;5021868;28;20026;-74
2021/12/25 00:27:41;;;;;;;21.10;12.00;;;;;;;;;;5025286;28;20089;-75
2021/12/25 00:34:49;;;;;;;21.58;13.00;;;;;;;;;;5024003;28;20029;-77
2021/12/25 00:37:15;;;;;;;24.63;15.18;;;;;;;;;;5038339;28;20086;-73
2021/12/25 00:39:43;;;;;;;28.50;15.52;;;;;;;;;;5023329;28;20050;-75
2021/12/25 00:42:09;;;;;;;31.58;14.52;;;;;;;;;;5025677;28;20366;-73
2021/12/25 00:44:36;;;;;;;33.45;16.08;;;;;;;;;;5038563;28;20034;-74
2021/12/25 00:47:03;;;;;;;35.35;18.33;;;;;;;;;;5023539;28;20105;-76
2021/12/25 00:49:29;;;;;;;49.70;21.58;;;;;;;;;;5025258;28;20022;-73
2021/12/25 00:51:55;;;;;;;47.85;22.55;;;;;;;;;;5026529;28;20037;-73
2021/12/25 00:54:21;;;;;;;48.30;19.83;;;;;;;;;;5024405;28;20085;-76
2021/12/25 00:56:47;;;;;;;48.17;19.33;;;;;;;;;;5024032;28;20029;-73
2021/12/25 00:59:14;;;;;;;31.83;15.88;;;;;;;;;;5022845;28;20116;-75
2021/12/25 01:01:40;;;;;;;41.28;15.32;;;;;;;;;;5023155;28;20026;-72
2021/12/25 01:04:06;;;;;;;51.53;17.05;;;;;;;;;;5023019;28;20026;-76
2021/12/25 01:06:32;;;;;;;53.70;15.88;;;;;;;;;;5023657;28;20018;-74
2021/12/25 01:08:58;;;;;;;38.70;13.18;;;;;;;;;;5022989;28;20021;-74
2021/12/25 01:11:27;;;;;;;46.88;15.52;;;;;;;;;;5023570;28;20025;-74
2021/12/25 01:14:02;;;;;;;36.70;11.32;;;;;;;;;;5023365;28;20600;-72
2021/12/25 01:17:03;;;;;;;32.53;10.25;;;;;;;;;;5025268;28;20022;-75
2021/12/25 01:28:05;;;;;;;37.17;10.82;;;;;;;;;;5024787;28;20026;-75
2021/12/25 01:48:30;;;;;;;37.40;14.68;;;;;;;;;;5023198;28;20503;-75
2021/12/25 01:50:56;;;;;;;33.83;14.60;;;;;;;;;;5027134;28;20085;-75
2021/12/25 01:53:22;;;;;;;29.92;13.88;;;;;;;;;;5027265;28;20026;-72
2021/12/25 01:55:49;;;;;;;26.48;14.15;;;;;;;;;;5029287;28;20048;-74
2021/12/25 01:58:15;;;;;;;30.02;11.10;;;;;;;;;;5040076;28;20056;-73
2021/12/25 02:00:47;;;;;;;20.33;9.77;;;;;;;;;;5025296;28;20078;-72
2021/12/25 02:03:14;;;;;;;16.35;8.13;;;;;;;;;;5025562;28;20014;-74
2021/12/25 02:05:40;;;;;;;23.50;10.52;;;;;;;;;;5025508;28;20050;-72
2021/12/25 02:08:06;;;;;;;13.73;7.75;;;;;;;;;;5024989;28;20026;-74
2021/12/25 02:10:32;;;;;;;18.58;8.38;;;;;;;;;;5026005;28;20053;-74
2021/12/25 02:12:59;;;;;;;19.35;7.53;;;;;;;;;;5025311;28;20089;-75
2021/12/25 02:15:27;;;;;;;27.67;6.97;;;;;;;;;;5025398;28;20495;-75
2021/12/25 02:20:26;;;;;;;12.98;5.75;;;;;;;;;;5024138;28;20026;-73
2021/12/25 02:22:59;;;;;;;20.58;5.53;;;;;;;;;;5023790;28;20032;-75
2021/12/25 02:25:35;;;;;;;25.60;5.97;;;;;;;;;;5026754;28;20404;-73
2021/12/25 02:28:01;;;;;;;14.70;4.88;;;;;;;;;;5022620;28;20025;-75
2021/12/25 02:30:28;;;;;;;10.77;4.80;;;;;;;;;;5023931;28;20037;-75
2021/12/25 02:32:58;;;;;;;14.80;4.70;;;;;;;;;;5024655;28;20556;-74
2021/12/25 02:35:24;;;;;;;15.93;6.18;;;;;;;;;;5026084;28;20424;-72
2021/12/25 02:37:50;;;;;;;12.55;4.20;;;;;;;;;;5024289;28;20091;-75
2021/12/25 02:40:16;;;;;;;5.82;3.15;;;;;;;;;;5026715;28;20033;-73
2021/12/25 02:42:42;;;;;;;7.95;3.58;;;;;;;;;;5024888;28;20053;-73
2021/12/25 02:45:17;;;;;;;7.55;3.45;;;;;;;;;;5026413;28;20036;-75
2021/12/25 02:47:47;;;;;;;13.43;3.17;;;;;;;;;;5024155;28;20032;-73
2021/12/25 02:50:22;;;;;;;10.60;4.35;;;;;;;;;;5025293;28;20040;-74
2021/12/25 02:52:48;;;;;;;10.98;4.28;;;;;;;;;;5024515;28;20022;-73
2021/12/25 02:55:14;;;;;;;18.15;3.65;;;;;;;;;;5026244;28;20025;-72
2021/12/25 02:57:40;;;;;;;8.85;3.33;;;;;;;;;;5028421;28;20022;-75
2021/12/25 03:00:08;;;;;;;14.68;5.57;;;;;;;;;;5029378;28;20121;-71
2021/12/25 03:02:35;;;;;;;10.13;3.67;;;;;;;;;;5030301;28;20036;-72
2021/12/25 03:05:01;;;;;;;14.95;3.78;;;;;;;;;;5029557;28;20090;-71
2021/12/25 03:07:28;;;;;;;12.52;4.15;;;;;;;;;;5031624;28;20029;-72
2021/12/25 03:09:54;;;;;;;16.30;5.03;;;;;;;;;;5031051;28;20030;-74
2021/12/25 03:12:29;;;;;;;7.07;3.10;;;;;;;;;;5029454;28;20045;-73
2021/12/25 03:15:15;;;;;;;23.77;5.43;;;;;;;;;;5027348;28;20038;-71
2021/12/25 03:17:41;;;;;;;9.32;3.83;;;;;;;;;;5029218;28;20040;-72
2021/12/25 03:20:09;;;;;;;9.80;3.92;;;;;;;;;;5030037;28;20026;-73
2021/12/25 03:22:37;;;;;;;10.63;3.25;;;;;;;;;;5028836;28;20021;-73
2021/12/25 03:25:05;;;;;;;11.43;3.30;;;;;;;;;;5028690;28;20045;-76
2021/12/25 03:27:51;;;;;;;10.45;3.28;;;;;;;;;;5028600;28;20064;-72
2021/12/25 03:33:05;;;;;;;18.90;4.38;;;;;;;;;;5024270;28;20522;-73
2021/12/25 03:35:50;;;;;;;14.32;3.95;;;;;;;;;;5029187;28;20053;-73
2021/12/25 03:38:20;;;;;;;9.45;3.70;;;;;;;;;;5028348;28;20026;-74
2021/12/25 03:40:47;;;;;;;11.68;3.80;;;;;;;;;;5028304;28;20021;-72
2021/12/25 03:43:19;;;;;;;11.70;3.22;;;;;;;;;;5027085;28;20034;-73
2021/12/25 03:45:46;;;;;;;13.32;3.85;;;;;;;;;;5029138;28;20030;-73
2021/12/25 03:48:27;;;;;;;13.68;3.60;;;;;;;;;;5029142;28;20049;-72
2021/12/25 03:59:27;;;;;;;10.55;3.13;;;;;;;;;;5017315;28;20046;-73
2021/12/25 04:02:31;;;;;;;10.40;3.50;;;;;;;;;;5028780;28;20030;-73
2021/12/25 04:05:17;;;;;;;7.70;2.90;;;;;;;;;;5028369;28;20041;-74
2021/12/25 04:11:03;;;;;;;;;;;;;;;;;;;;;
2021/12/25 04:13:35;;;;;;;10.40;3.28;;;;;;;;;;5026560;28;20093;-73
2021/12/25 04:16:01;;;;;;;4.07;2.53;;;;;;;;;;5028062;28;20026;-74
2021/12/25 04:18:27;;;;;;;7.65;3.15;;;;;;;;;;5028526;28;20105;-71
2021/12/25 04:20:53;;;;;;;9.60;3.00;;;;;;;;;;5026644;28;20022;-74
2021/12/25 04:23:24;;;;;;;9.05;2.83;;;;;;;;;;5028151;28;20076;-72
2021/12/25 04:25:50;;;;;;;7.40;2.88;;;;;;;;;;5028401;28;20021;-72
2021/12/25 04:28:58;;;;;;;11.43;3.47;;;;;;;;;;5027620;28;20041;-71
2021/12/25 04:31:34;;;;;;;4.60;2.55;;;;;;;;;;5025550;28;20034;-72
2021/12/25 04:48:51;;;;;;;10.52;2.90;;;;;;;;;;5027898;28;20033;-72
2021/12/25 05:02:20;;;;;;;10.65;2.55;;;;;;;;;;5026473;28;20049;-73
2021/12/25 05:04:52;;;;;;;3.70;2.28;;;;;;;;;;5025218;28;20033;-75
2021/12/25 05:07:18;;;;;;;5.40;2.45;;;;;;;;;;5027079;28;20045;-72
2021/12/25 05:09:47;;;;;;;9.52;2.42;;;;;;;;;;5026575;28;20090;-72
2021/12/25 05:12:13;;;;;;;8.43;3.10;;;;;;;;;;5026396;28;20040;-73
2021/12/25 05:14:39;;;;;;;10.63;3.70;;;;;;;;;;5025722;28;20030;-72
2021/12/25 05:17:20;;;;;;;5.40;2.45;;;;;;;;;;5027859;28;20036;-72
2021/12/25 05:19:53;;;;;;;5.57;2.30;;;;;;;;;;5026094;28;20018;-72
2021/12/25 05:22:32;;;;;;;8.90;2.38;;;;;;;;;;5026839;28;20457;-73
2021/12/25 05:25:14;;;;;;;11.60;3.20;;;;;;;;;;5027800;28;20056;-73
2021/12/25 05:27:49;;;;;;;7.78;2.50;;;;;;;;;;5031019;28;20022;-72
2021/12/25 05:30:42;;;;;;;11.35;4.38;;;;;;;;;;5031170;28;20049;-72
2021/12/25 05:33:08;;;;;;;5.85;3.58;;;;;;;;;;5029664;28;20037;-74
2021/12/25 05:35:34;;;;;;;9.77;3.90;;;;;;;;;;5028740;28;20052;-72
2021/12/25 05:38:04;;;;;;;8.60;3.10;;;;;;;;;;5030784;28;20033;-72
2021/12/25 05:40:33;;;;;;;10.63;3.47;;;;;;;;;;5030986;28;20041;-72
2021/12/25 05:42:59;;;;;;;13.45;3.47;;;;;;;;;;5030318;28;20499;-72
2021/12/25 05:45:29;;;;;;;10.88;3.75;;;;;;;;;;5031313;28;20037;-72
2021/12/25 05:48:04;;;;;;;9.75;3.83;;;;;;;;;;5030805;28;20041;-71
2021/12/25 05:50:30;;;;;;;11.88;3.25;;;;;;;;;;5030436;28;20104;-72
2021/12/25 05:52:56;;;;;;;9.48;2.90;;;;;;;;;;5030551;28;20033;-72
2021/12/25 05:55:25;;;;;;;7.25;3.47;;;;;;;;;;5030795;28;20022;-72
2021/12/25 05:57:51;;;;;;;4.82;2.97;;;;;;;;;;5030617;28;20022;-74
2021/12/25 06:00:53;;;;;;;5.25;2.75;;;;;;;;;;5031003;28;20473;-72
2021/12/25 06:03:19;;;;;;;9.88;3.08;;;;;;;;;;4989632;28;20042;-75
2021/12/25 06:05:47;;;;;;;6.65;3.00;;;;;;;;;;4988471;28;20039;-72
2021/12/25 06:08:14;;;;;;;7.95;3.05;;;;;;;;;;4989623;28;20038;-72
2021/12/25 06:10:41;;;;;;;7.05;3.60;;;;;;;;;;4979174;28;20041;-73
2021/12/25 06:13:16;;;;;;;8.57;2.88;;;;;;;;;;5029981;28;20481;-72
2021/12/25 06:15:42;;;;;;;8.27;3.25;;;;;;;;;;5029539;28;20021;-73
2021/12/25 06:18:12;;;;;;;6.10;3.47;;;;;;;;;;5028480;28;20026;-74
2021/12/25 06:20:38;;;;;;;8.15;3.35;;;;;;;;;;5029596;28;20030;-72
2021/12/25 06:23:05;;;;;;;16.85;3.33;;;;;;;;;;5029261;28;20416;-72
2021/12/25 06:25:31;;;;;;;8.88;3.10;;;;;;;;;;5029677;28;20026;-72
2021/12/25 06:27:58;;;;;;;6.45;3.00;;;;;;;;;;5029712;28;20026;-72
2021/12/25 06:30:27;;;;;;;11.40;3.40;;;;;;;;;;5029539;28;20041;-73
2021/12/25 06:32:55;;;;;;;9.85;3.25;;;;;;;;;;5029268;28;20030;-72
2021/12/25 06:35:22;;;;;;;6.50;2.95;;;;;;;;;;5028432;28;20041;-72
2021/12/25 06:37:48;;;;;;;10.32;3.13;;;;;;;;;;5028209;28;20079;-73
2021/12/25 06:40:34;;;;;;;7.97;3.22;;;;;;;;;;5028224;28;20034;-72
2021/12/25 06:43:01;;;;;;;11.40;3.92;;;;;;;;;;5028600;28;20050;-74
2021/12/25 06:45:28;;;;;;;8.68;2.92;;;;;;;;;;5029303;28;20030;-76
2021/12/25 06:47:54;;;;;;;8.50;3.63;;;;;;;;;;5029826;28;20050;-74
2021/12/25 06:50:21;;;;;;;6.40;2.20;;;;;;;;;;5028652;28;20065;-72
2021/12/25 06:52:47;;;;;;;7.88;2.63;;;;;;;;;;5028126;28;20491;-72
2021/12/25 06:55:28;;;;;;;7.40;3.13;;;;;;;;;;5029853;28;20032;-77
2021/12/25 06:58:00;;;;;;;9.32;2.85;;;;;;;;;;5027789;28;20101;-72
2021/12/25 07:00:27;;;;;;;6.88;3.03;;;;;;;;;;5028776;28;20038;-72
2021/12/25 07:02:55;;;;;;;8.35;2.75;;;;;;;;;;5029423;28;20056;-74
2021/12/25 07:05:21;;;;;;;8.30;2.97;;;;;;;;;;5028868;28;20018;-74
2021/12/25 07:07:47;;;;;;;13.40;3.45;;;;;;;;;;5027642;28;20033;-72
2021/12/25 07:10:14;;;;;;;5.00;2.60;;;;;;;;;;5028145;28;20037;-74
2021/12/25 07:12:44;;;;;;;9.13;3.40;;;;;;;;;;5026528;28;20034;-75
2021/12/25 07:15:10;;;;;;;8.63;3.55;;;;;;;;;;5028754;28;20014;-71
2021/12/25 07:17:36;;;;;;;7.82;3.00;;;;;;;;;;5027655;28;20048;-74
2021/12/25 07:20:03;;;;;;;6.93;3.35;;;;;;;;;;5028622;28;20032;-74
2021/12/25 07:22:29;;;;;;;7.20;3.78;;;;;;;;;;5027894;28;20037;-72
2021/12/25 07:25:08;;;;;;;5.28;2.90;;;;;;;;;;5027603;28;20030;-72
2021/12/25 07:27:35;;;;;;;8.88;3.50;;;;;;;;;;5025968;28;20030;-74
2021/12/25 07:30:02;;;;;;;11.88;3.70;;;;;;;;;;5027557;28;20026;-74
2021/12/25 07:32:29;;;;;;;7.05;3.03;;;;;;;;;;5027382;28;20018;-72
2021/12/25 07:34:56;;;;;;;5.00;3.10;;;;;;;;;;5027890;28;20025;-72
2021/12/25 07:37:22;;;;;;;10.30;3.85;;;;;;;;;;5028158;28;20050;-72
2021/12/25 07:39:48;;;;;;;7.45;2.80;;;;;;;;;;5027186;28;20029;-75
2021/12/25 07:42:14;;;;;;;9.52;3.60;;;;;;;;;;5028141;28;20052;-72
2021/12/25 07:44:40;;;;;;;8.45;3.08;;;;;;;;;;5027289;28;20036;-78
2021/12/25 07:47:10;;;;;;;8.57;3.30;;;;;;;;;;5027096;28;20030;-75
2021/12/25 07:49:37;;;;;;;10.98;3.65;;;;;;;;;;5027890;28;20041;-72
2021/12/25 07:52:07;;;;;;;6.57;2.58;;;;;;;;;;5027034;28;20037;-72
2021/12/25 07:54:33;;;;;;;13.65;3.30;;;;;;;;;;5027918;28;20025;-72
2021/12/25 07:56:59;;;;;;;5.47;3.00;;;;;;;;;;5027802;28;20494;-73
2021/12/25 07:59:26;;;;;;;7.15;2.92;;;;;;;;;;5026588;28;20045;-73
2021/12/25 08:01:53;;;;;;;7.93;3.20;;;;;;;;;;5026764;28;20021;-72
2021/12/25 08:04:32;;;;;;;6.75;2.50;;;;;;;;;;5027677;28;20018;-71
2021/12/25 08:06:58;;;;;;;8.50;3.10;;;;;;;;;;5025066;28;20053;-72
2021/12/25 08:09:29;;;;;;;7.55;2.67;;;;;;;;;;5027176;28;20496;-71
2021/12/25 08:11:56;;;;;;;6.97;2.63;;;;;;;;;;5027337;28;20049;-74
2021/12/25 08:14:42;;;;;;;8.93;2.75;;;;;;;;;;5026676;28;20026;-73
2021/12/25 08:17:09;;;;;;;8.80;2.85;;;;;;;;;;5027233;28;20022;-74
2021/12/25 08:19:44;;;;;;;11.57;2.97;;;;;;;;;;5029804;28;20081;-71
2021/12/25 08:22:10;;;;;;;4.60;2.78;;;;;;;;;;5026422;28;20026;-73
2021/12/25 08:24:36;;;;;;;10.85;2.80;;;;;;;;;;5027850;28;20053;-73
2021/12/25 08:27:26;;;;;;;5.63;3.67;;;;;;;;;;5028700;28;20157;-75
2021/12/25 08:29:56;;;;;;;7.57;2.80;;;;;;;;;;5026463;28;20024;-72
2021/12/25 08:32:22;;;;;;;5.38;3.03;;;;;;;;;;5027259;28;20104;-76
2021/12/25 08:35:00;;;;;;;6.57;3.08;;;;;;;;;;5028156;28;20022;-73
2021/12/25 08:37:26;;;;;;;6.35;2.45;;;;;;;;;;5027238;28;20389;-76
2021/12/25 08:40:15;;;;;;;10.32;2.83;;;;;;;;;;5028464;28;20025;-73
2021/12/25 08:42:51;;;;;;;8.77;2.85;;;;;;;;;;5023130;28;20041;-71
2021/12/25 08:48:26;;;;;;;7.72;2.40;;;;;;;;;;5008541;28;20030;-74
2021/12/25 08:50:55;;;;;;;6.78;2.58;;;;;;;;;;5026714;28;20488;-73
2021/12/25 08:53:22;;;;;;;12.10;2.92;;;;;;;;;;5027677;28;20048;-76
2021/12/25 08:55:50;;;;;;;6.85;3.00;;;;;;;;;;5027078;28;20029;-73
2021/12/25 08:58:16;;;;;;;8.15;3.05;;;;;;;;;;5026767;28;20028;-72
2021/12/25 09:00:43;;;;;;;8.20;2.67;;;;;;;;;;5025613;28;20034;-74
2021/12/25 09:03:17;;;;;;;6.28;2.67;;;;;;;;;;5028845;28;20026;-74
2021/12/25 09:05:59;;;;;;;9.35;3.00;;;;;;;;;;5027241;28;20022;-72
2021/12/25 09:08:25;;;;;;;7.43;2.95;;;;;;;;;;5024214;28;20082;-72
2021/12/25 09:10:52;;;;;;;5.15;2.30;;;;;;;;;;5027275;28;20080;-75
2021/12/25 09:13:18;;;;;;;9.35;3.08;;;;;;;;;;5027225;28;20026;-73
2021/12/25 09:15:45;;;;;;;6.18;3.90;;;;;;;;;;5025530;28;20034;-74
2021/12/25 09:18:11;;;;;;;9.07;2.67;;;;;;;;;;5027513;28;20042;-73
2021/12/25 09:20:38;;;;;;;9.57;3.03;;;;;;;;;;5027996;28;20032;-73
2021/12/25 09:23:04;;;;;;;9.55;3.83;;;;;;;;;;5025071;28;20030;-76
2021/12/25 09:25:32;;;;;;;11.55;3.67;;;;;;;;;;5025421;28;20090;-74
2021/12/25 09:27:58;;;;;;;3.85;2.72;;;;;;;;;;5025353;28;20048;-70
2021/12/25 09:30:48;;;;;;;;;;;;;;;;;;;;;
2021/12/25 09:33:14;;;;;;;5.20;2.95;;;;;;;;;;5026058;28;20090;-71
2021/12/25 09:36:07;;;;;;;10.27;4.38;;;;;;;;;;5025180;28;20116;-73
2021/12/25 09:38:33;;;;;;;8.60;2.88;;;;;;;;;;5010175;28;20038;-72
2021/12/25 09:41:20;;;;;;;8.80;3.28;;;;;;;;;;5027182;28;20018;-72
2021/12/25 09:44:09;;;;;;;9.00;2.80;;;;;;;;;;5026658;28;20026;-72
2021/12/25 09:46:38;;;;;;;6.43;2.35;;;;;;;;;;5023759;28;20042;-72
2021/12/25 09:49:04;;;;;;;12.75;3.78;;;;;;;;;;5028157;28;20030;-72
2021/12/25 09:51:31;;;;;;;9.90;2.88;;;;;;;;;;5026542;28;20084;-72
2021/12/25 09:54:01;;;;;;;7.43;3.35;;;;;;;;;;5025846;28;20084;-75
2021/12/25 09:56:28;;;;;;;8.90;3.40;;;;;;;;;;5026923;28;20021;-74
2021/12/25 09:58:57;;;;;;;12.15;4.10;;;;;;;;;;5026132;28;20042;-72
2021/12/25 10:01:39;;;;;;;6.38;3.42;;;;;;;;;;5026688;28;20033;-74
2021/12/25 10:04:06;;;;;;;10.52;3.95;;;;;;;;;;5026850;28;20567;-74
2021/12/25 10:06:36;;;;;;;15.32;5.25;;;;;;;;;;5025708;28;20030;-72
2021/12/25 10:09:19;;;;;;;8.00;3.72;;;;;;;;;;5026140;28;20036;-73
2021/12/25 10:12:39;;;;;;;14.85;4.47;;;;;;;;;;5030873;28;20033;-75
2021/12/25 10:15:09;;;;;;;8.95;4.13;;;;;;;;;;4988014;28;20054;-72
2021/12/25 10:17:52;;;;;;;11.00;3.53;;;;;;;;;;4972651;28;20035;-75
2021/12/25 10:20:37;;;;;;;14.48;4.90;;;;;;;;;;4988279;28;20030;-73
2021/12/25 10:23:08;;;;;;;12.57;3.30;;;;;;;;;;5001256;28;20130;-72
2021/12/25 10:25:38;;;;;;;11.23;3.50;;;;;;;;;;5029614;28;20263;-73
2021/12/25 10:28:14;;;;;;;11.85;3.65;;;;;;;;;;5030312;28;20080;-71
2021/12/25 10:31:17;;;;;;;7.82;3.95;;;;;;;;;;5027764;28;20049;-71
2021/12/25 10:33:53;;;;;;;14.23;4.15;;;;;;;;;;5030046;28;20026;-74
2021/12/25 10:36:37;;;;;;;14.85;3.95;;;;;;;;;;5029559;28;20025;-71
2021/12/25 10:39:06;;;;;;;10.43;4.28;;;;;;;;;;5030388;28;20026;-72
2021/12/25 10:41:37;;;;;;;14.45;3.72;;;;;;;;;;5029157;28;20396;-73
2021/12/25 10:44:20;;;;;;;9.70;3.83;;;;;;;;;;5029442;28;20030;-71
2021/12/25 10:46:52;;;;;;;5.65;3.00;;;;;;;;;;5028751;28;20087;-72
2021/12/25 10:49:18;;;;;;;8.95;2.83;;;;;;;;;;5029506;28;20060;-72
2021/12/25 10:51:45;;;;;;;9.93;3.80;;;;;;;;;;5027343;28;20026;-74
2021/12/25 10:54:13;;;;;;;6.43;3.30;;;;;;;;;;5029598;28;20026;-72
2021/12/25 10:56:42;;;;;;;9.15;3.40;;;;;;;;;;5029248;28;20026;-72
2021/12/25 10:59:11;;;;;;;6.30;3.38;;;;;;;;;;5028499;28;20065;-72
2021/12/25 11:01:48;;;;;;;7.32;3.00;;;;;;;;;;5029413;28;20029;-72
2021/12/25 11:04:29;;;;;;;6.78;3.00;;;;;;;;;;5029139;28;20053;-73
2021/12/25 11:06:56;;;;;;;5.47;3.08;;;;;;;;;;5026449;28;20030;-71
2021/12/25 11:09:22;;;;;;;4.68;2.47;;;;;;;;;;5027669;28;20468;-72
2021/12/25 11:12:07;;;;;;;6.72;3.20;;;;;;;;;;5028925;28;20022;-68
2021/12/25 11:14:33;;;;;;;7.33;2.93;;;;;;;;;;5028276;28;20033;-71
2021/12/25 11:17:21;;;;;;;7.45;3.30;;;;;;;;;;5028654;28;20152;-72
2021/12/25 11:19:57;;;;;;;7.72;3.15;;;;;;;;;;5026744;28;20040;-72
2021/12/25 11:22:25;;;;;;;8.23;3.53;;;;;;;;;;5027406;28;20030;-72
2021/12/25 11:24:51;;;;;;;7.07;3.58;;;;;;;;;;5027656;28;20022;-77
2021/12/25 11:27:20;;;;;;;9.75;3.08;;;;;;;;;;5029200;28;20037;-72
2021/12/25 11:29:47;;;;;;;6.07;3.60;;;;;;;;;;5028462;28;20075;-72
2021/12/25 11:32:13;;;;;;;8.25;2.97;;;;;;;;;;5028018;28;20018;-73
2021/12/25 11:34:39;;;;;;;4.93;2.55;;;;;;;;;;5027866;28;20041;-72
2021/12/25 11:39:53;;;;;;;10.30;4.97;;;;;;;;;;5027863;28;20030;-72
2021/12/25 11:42:20;;;;;;;9.50;4.22;;;;;;;;;;5029160;28;20014;-71
2021/12/25 11:44:51;;;;;;;6.95;3.08;;;;;;;;;;5027467;28;20077;-72
2021/12/25 11:47:30;;;;;;;7.22;3.53;;;;;;;;;;5026380;28;20021;-74
2021/12/25 11:50:07;;;;;;;10.23;4.07;;;;;;;;;;5028285;28;20018;-73
2021/12/25 11:52:45;;;;;;;14.30;4.95;;;;;;;;;;5026962;28;20496;-72
2021/12/25 11:58:36;;;;;;;5.70;3.33;;;;;;;;;;5029508;28;20026;-72
2021/12/25 12:01:18;;;;;;;5.88;3.92;;;;;;;;;;5029167;28;20030;-74
2021/12/25 12:03:46;;;;;;;8.10;5.10;;;;;;;;;;5028431;28;20022;-72
2021/12/25 12:06:19;;;;;;;15.50;5.47;;;;;;;;;;5028412;28;20028;-72
2021/12/25 12:08:58;;;;;;;7.82;4.20;;;;;;;;;;5028098;28;20026;-73
2021/12/25 12:11:25;;;;;;;9.60;4.28;;;;;;;;;;5027467;28;20034;-77
2021/12/25 12:14:10;;;;;;;12.73;4.82;;;;;;;;;;5026566;28;20085;-73
2021/12/25 12:16:38;;;;;;;5.28;2.83;;;;;;;;;;5028393;28;20484;-74
2021/12/25 12:19:04;;;;;;;7.00;3.15;;;;;;;;;;5026435;28;20030;-73
2021/12/25 12:21:43;;;;;;;7.53;3.65;;;;;;;;;;5027674;28;20021;-72
2021/12/25 12:27:30;;;;;;;6.38;3.20;;;;;;;;;;5027484;28;20157;-71
2021/12/25 12:29:57;;;;;;;8.98;3.72;;;;;;;;;;5027263;28;20477;-72
2021/12/25 12:32:23;;;;;;;6.25;3.45;;;;;;;;;;5026850;28;20033;-73
2021/12/25 12:34:51;;;;;;;7.20;4.38;;;;;;;;;;5026903;28;20072;-71
2021/12/25 12:37:20;;;;;;;5.40;3.38;;;;;;;;;;5028641;28;20027;-72
2021/12/25 12:40:02;;;;;;;6.03;3.10;;;;;;;;;;5027699;28;20049;-71
2021/12/25 12:42:54;;;;;;;6.38;2.85;;;;;;;;;;5028037;28;20105;-71
2021/12/25 12:45:32;;;;;;;14.82;4.20;;;;;;;;;;5027494;28;20021;-73
2021/12/25 12:48:14;;;;;;;9.00;2.72;;;;;;;;;;5026544;28;20104;-76
2021/12/25 12:50:41;;;;;;;7.78;3.10;;;;;;;;;;5027347;28;20032;-71
2021/12/25 12:53:09;;;;;;;11.15;3.08;;;;;;;;;;5027420;28;20029;-71
2021/12/25 12:55:38;;;;;;;5.60;3.05;;;;;;;;;;5027015;28;20018;-73
2021/12/25 12:58:14;;;;;;;4.80;3.00;;;;;;;;;;5027608;28;20045;-72
2021/12/25 13:00:42;;;;;;;7.70;3.85;;;;;;;;;;5026226;28;20038;-75
2021/12/25 13:03:08;;;;;;;5.53;3.50;;;;;;;;;;5027852;28;20060;-72
2021/12/25 13:05:37;;;;;;;8.48;3.95;;;;;;;;;;5029134;28;20034;-73
2021/12/25 13:08:54;;;;;;;6.88;3.28;;;;;;;;;;5027689;28;20090;-72
2021/12/25 13:11:33;;;;;;;8.20;3.40;;;;;;;;;;4986246;28;20438;-72
2021/12/25 13:14:03;;;;;;;7.05;3.60;;;;;;;;;;4968222;28;20035;-73
2021/12/25 13:16:39;;;;;;;8.40;3.65;;;;;;;;;;4987457;28;20110;-72
2021/12/25 13:19:06;;;;;;;14.48;5.25;;;;;;;;;;5004154;28;20045;-74
2021/12/25 13:21:33;;;;;;;6.75;3.70;;;;;;;;;;5027352;28;20037;-72
2021/12/25 13:24:06;;;;;;;6.88;4.35;;;;;;;;;;5027107;28;20026;-72
2021/12/25 13:26:35;;;;;;;8.68;4.90;;;;;;;;;;5027102;28;20475;-71
2021/12/25 13:29:06;;;;;;;6.25;3.10;;;;;;;;;;5026829;28;20036;-71
2021/12/25 13:31:34;;;;;;;5.93;3.03;;;;;;;;;;5026611;28;20030;-71
2021/12/25 13:34:05;;;;;;;5.80;3.20;;;;;;;;;;5027204;28;20026;-73
2021/12/25 13:36:35;;;;;;;6.63;3.45;;;;;;;;;;5027908;28;20034;-71
2021/12/25 13:39:09;;;;;;;3.70;3.00;;;;;;;;;;5027418;28;20109;-72
2021/12/25 13:41:38;;;;;;;5.43;3.78;;;;;;;;;;5027748;28;20052;-71
2021/12/25 13:44:09;;;;;;;4.78;2.38;;;;;;;;;;5026180;28;20489;-71
2021/12/25 13:46:45;;;;;;;6.68;2.75;;;;;;;;;;5028798;28;20025;-72
2021/12/25 13:49:30;;;;;;;5.75;3.67;;;;;;;;;;5030656;28;20034;-71
2021/12/25 13:52:07;;;;;;;6.30;4.72;;;;;;;;;;5031084;28;20082;-71
2021/12/25 13:54:36;;;;;;;9.20;4.15;;;;;;;;;;5030277;28;20030;-74
2021/12/25 13:57:05;;;;;;;10.30;3.92;;;;;;;;;;5030419;28;20026;-72
2021/12/25 13:59:32;;;;;;;5.75;3.55;;;;;;;;;;5029374;28;20049;-73
2021/12/25 14:02:02;;;;;;;7.88;3.72;;;;;;;;;;5029649;28;20014;-74
2021/12/25 14:04:29;;;;;;;5.72;3.30;;;;;;;;;;5029184;28;20026;-73
2021/12/25 14:06:55;;;;;;;8.10;4.20;;;;;;;;;;5029520;28;20030;-73
2021/12/25 14:09:27;;;;;;;8.82;4.38;;;;;;;;;;5030534;28;20030;-76
2021/12/25 14:11:58;;;;;;;7.28;4.10;;;;;;;;;;5029200;28;20032;-72
2021/12/25 14:14:42;;;;;;;6.80;4.68;;;;;;;;;;5029164;28;20461;-72
2021/12/25 14:17:13;;;;;;;8.65;3.95;;;;;;;;;;5029352;28;20036;-74
2021/12/25 14:19:39;;;;;;;7.18;3.47;;;;;;;;;;5029458;28;20026;-72
2021/12/25 14:22:06;;;;;;;4.72;3.00;;;;;;;;;;5029917;28;20045;-72
2021/12/25 14:24:41;;;;;;;5.55;2.90;;;;;;;;;;5028899;28;20113;-73
2021/12/25 14:27:19;;;;;;;6.93;4.40;;;;;;;;;;5029144;28;20052;-72
2021/12/25 14:29:45;;;;;;;6.00;5.07;;;;;;;;;;5029275;28;20061;-72
2021/12/25 14:32:37;;;;;;;5.78;4.20;;;;;;;;;;5026828;28;20034;-75
2021/12/25 14:35:24;;;;;;;8.55;4.35;;;;;;;;;;5025680;28;20061;-73
2021/12/25 14:37:58;;;;;;;10.88;5.43;;;;;;;;;;5029097;28;20046;-73
2021/12/25 14:40:26;;;;;;;8.40;4.10;;;;;;;;;;5026951;28;20029;-72
2021/12/25 14:43:06;;;;;;;13.60;5.72;;;;;;;;;;5027225;28;20026;-72
2021/12/25 14:46:02;;;;;;;7.45;4.72;;;;;;;;;;5026693;28;20034;-74
2021/12/25 14:48:32;;;;;;;14.13;7.93;;;;;;;;;;5020405;28;20038;-73
2021/12/25 14:51:11;;;;;;;8.20;5.68;;;;;;;;;;5027148;28;20105;-73
2021/12/25 14:54:04;;;;;;;9.18;5.28;;;;;;;;;;5027073;28;20030;-73
2021/12/25 14:56:33;;;;;;;6.32;4.30;;;;;;;;;;5022915;28;20030;-74
2021/12/25 14:59:01;;;;;;;6.28;3.55;;;;;;;;;;5026514;28;20042;-74
2021/12/25 15:01:28;;;;;;;7.60;5.43;;;;;;;;;;5026859;28;20026;-75
2021/12/25 15:04:12;;;;;;;5.68;4.00;;;;;;;;;;5028969;28;20052;-75
2021/12/25 15:06:54;;;;;;;8.27;4.53;;;;;;;;;;5026066;28;20030;-78
2021/12/25 15:09:22;;;;;;;7.15;4.50;;;;;;;;;;5027639;28;20089;-72
2021/12/25 15:12:12;;;;;;;;;;;;;;;;;;;;;
2021/12/25 15:14:44;;;;;;;12.00;6.38;;;;;;;;;;5028926;28;20121;-71
2021/12/25 15:17:12;;;;;;;10.95;6.95;;;;;;;;;;5029604;28;20022;-71
2021/12/25 15:19:40;;;;;;;11.45;7.38;;;;;;;;;;5029646;28;20449;-72
2021/12/25 15:22:08;;;;;;;15.10;7.25;;;;;;;;;;5029471;28;20022;-71
2021/12/25 15:24:34;;;;;;;13.55;6.75;;;;;;;;;;5028655;28;20069;-72
2021/12/25 15:27:01;;;;;;;8.65;6.05;;;;;;;;;;5028063;28;20018;-71
2021/12/25 15:29:36;;;;;;;10.27;5.85;;;;;;;;;;5028178;28;20122;-73
2021/12/25 15:32:05;;;;;;;11.98;6.95;;;;;;;;;;5028468;28;20393;-73
2021/12/25 15:34:34;;;;;;;14.15;9.50;;;;;;;;;;5044086;28;20060;-72
2021/12/25 15:37:00;;;;;;;10.25;6.43;;;;;;;;;;5029318;28;20052;-70
2021/12/25 15:39:32;;;;;;;6.90;4.82;;;;;;;;;;5028286;28;20048;-71
2021/12/25 15:42:02;;;;;;;5.90;4.32;;;;;;;;;;5030069;28;20018;-72
2021/12/25 15:44:28;;;;;;;6.45;5.18;;;;;;;;;;5028664;28;20024;-71
2021/12/25 15:46:55;;;;;;;13.63;6.13;;;;;;;;;;5028912;28;20036;-72
2021/12/25 15:49:21;;;;;;;5.55;4.25;;;;;;;;;;5028304;28;20034;-71
2021/12/25 15:51:54;;;;;;;9.70;6.72;;;;;;;;;;5028792;28;20030;-71
2021/12/25 15:54:30;;;;;;;8.75;7.25;;;;;;;;;;5027314;28;20030;-72
2021/12/25 15:56:58;;;;;;;9.93;6.25;;;;;;;;;;5027258;28;20033;-73
2021/12/25 15:59:30;;;;;;;13.43;9.25;;;;;;;;;;5027893;28;20026;-72
2021/12/25 16:02:01;;;;;;;9.75;6.07;;;;;;;;;;5029471;28;20033;-72
2021/12/25 16:04:27;;;;;;;25.45;15.15;;;;;;;;;;5027781;28;20021;-72
2021/12/25 16:06:54;;;;;;;12.63;8.00;;;;;;;;;;5028572;28;20084;-72
2021/12/25 16:09:20;;;;;;;5.10;4.40;;;;;;;;;;5026796;28;20054;-74
2021/12/25 16:12:37;;;;;;;10.20;5.63;;;;;;;;;;5026142;28;20034;-73
2021/12/25 16:15:06;;;;;;;11.30;6.38;;;;;;;;;;5026681;28;20066;-75
2021/12/25 16:17:33;;;;;;;7.18;4.40;;;;;;;;;;5027198;28;20110;-75
2021/12/25 16:19:59;;;;;;;9.77;8.10;;;;;;;;;;5027409;28;20022;-72
2021/12/25 16:22:25;;;;;;;9.27;4.03;;;;;;;;;;5027237;28;20026;-72
2021/12/25 16:24:51;;;;;;;10.68;5.32;;;;;;;;;;5028402;28;20026;-72
2021/12/25 16:27:17;;;;;;;5.32;4.82;;;;;;;;;;5028736;28;20087;-72
2021/12/25 16:29:43;;;;;;;6.07;4.30;;;;;;;;;;5027887;28;20022;-71
2021/12/25 16:32:09;;;;;;;6.55;4.00;;;;;;;;;;5027038;28;20029;-72